createdAt,value
2019-05-25T00:00:20.155Z,95082.91
2019-05-25T00:02:50.207Z,95082.94
2019-05-25T00:05:20.212Z,95083.58
2019-05-25T00:07:50.255Z,95082.94
2019-05-25T00:10:20.262Z,95078.17
2019-05-25T00:12:50.301Z,95075.73
2019-05-25T00:15:20.308Z,95075.88
2019-05-25T00:17:50.280Z,95074.91
2019-05-25T00:20:20.299Z,95069.50
2019-05-25T00:22:50.274Z,95076.89
2019-05-25T00:25:20.324Z,95075.58
2019-05-25T00:27:50.429Z,95073.95
2019-05-25T00:30:20.805Z,95076.44
2019-05-25T00:32:50.879Z,95069.72
2019-05-25T00:35:20.993Z,95069.37
2019-05-25T00:37:51.069Z,95072.67
2019-05-25T00:40:21.110Z,95067.78
2019-05-25T00:42:51.069Z,95065.49
2019-05-25T00:45:21.040Z,95067.14
2019-05-25T00:47:51.047Z,95064.69
2019-05-25T00:50:21.021Z,95058.76
2019-05-25T00:52:51.025Z,95062.56
2019-05-25T00:55:20.999Z,95066.52
2019-05-25T00:57:51.075Z,95063.73
2019-05-25T01:00:21.442Z,95065.73
2019-05-25T01:02:51.489Z,95065.73
2019-05-25T01:05:21.470Z,95063.11
2019-05-25T01:07:51.449Z,95061.61
2019-05-25T01:10:21.462Z,95054.73
2019-05-25T01:12:51.437Z,95056.55
2019-05-25T01:15:21.641Z,95058.53
2019-05-25T01:17:52.789Z,95059.34
2019-05-25T01:20:23.700Z,95057.05
2019-05-25T01:22:53.682Z,95058.04
2019-05-25T01:25:23.653Z,95059.19
2019-05-25T01:27:53.658Z,95062.14
2019-05-25T01:30:24.689Z,95057.07
2019-05-25T01:32:54.687Z,95053.95
2019-05-25T01:35:24.784Z,95051.65
2019-05-25T01:37:54.738Z,95056.59
2019-05-25T01:40:24.745Z,95056.09
2019-05-25T01:42:54.661Z,95063.95
2019-05-25T01:45:25.649Z,95068.37
2019-05-25T01:47:55.623Z,95068.86
2019-05-25T01:50:25.569Z,95071.16
2019-05-25T01:52:55.526Z,95070.94
2019-05-25T01:55:25.534Z,95078.90
2019-05-25T01:57:55.511Z,95073.95
2019-05-25T02:00:25.715Z,95078.02
2019-05-25T02:02:55.621Z,95074.41
2019-05-25T02:05:25.704Z,95074.38
2019-05-25T02:07:55.677Z,95073.55
2019-05-25T02:10:25.542Z,95073.55
2019-05-25T02:12:55.584Z,95075.67
2019-05-25T02:15:25.589Z,95078.91
2019-05-25T02:17:55.829Z,95079.05
2019-05-25T02:20:25.842Z,95074.77
2019-05-25T02:22:55.987Z,95076.22
2019-05-25T02:25:25.999Z,95075.39
2019-05-25T02:27:56.012Z,95076.52
2019-05-25T02:30:27.598Z,95075.87
2019-05-25T02:32:57.691Z,95075.52
2019-05-25T02:35:28.470Z,95071.45
2019-05-25T02:37:58.578Z,95080.14
2019-05-25T02:40:28.812Z,95075.56
2019-05-25T02:42:59.543Z,95080.67
2019-05-25T02:45:29.518Z,95077.75
2019-05-25T02:47:59.527Z,95078.27
2019-05-25T02:50:29.497Z,95078.95
2019-05-25T02:52:59.506Z,95076.20
2019-05-25T02:55:34.227Z,95075.20
2019-05-25T02:58:01.184Z,95079.30
2019-05-25T03:00:35.411Z,95077.33
2019-05-25T03:03:04.971Z,95073.58
2019-05-25T03:05:34.636Z,95077.51
2019-05-25T03:08:05.494Z,95079.16
2019-05-25T03:10:36.574Z,95080.95
2019-05-25T03:13:06.551Z,95078.84
2019-05-25T03:15:36.553Z,95082.43
2019-05-25T03:18:06.564Z,95076.09
2019-05-25T03:20:36.535Z,95078.36
2019-05-25T03:23:06.548Z,95075.74
2019-05-25T03:25:49.023Z,95071.67
2019-05-25T03:28:08.295Z,95077.56
2019-05-25T03:30:38.793Z,95074.29
2019-05-25T03:33:08.711Z,95070.22
2019-05-25T03:35:38.688Z,95074.97
2019-05-25T03:38:08.699Z,95075.45
2019-05-25T03:40:38.668Z,95077.28
2019-05-25T03:43:08.674Z,95082.34
2019-05-25T03:45:38.646Z,95078.76
2019-05-25T03:48:08.655Z,95082.86
2019-05-25T03:50:39.798Z,95085.30
2019-05-25T03:53:09.804Z,95083.02
2019-05-25T03:55:39.775Z,95082.36
2019-05-25T03:58:09.674Z,95077.13
2019-05-25T04:00:40.950Z,95074.99
2019-05-25T04:03:10.964Z,95078.13
2019-05-25T04:05:41.006Z,95078.44
2019-05-25T04:08:11.019Z,95077.30
2019-05-25T04:10:40.993Z,95077.64
2019-05-25T04:13:11.066Z,95076.02
2019-05-25T04:15:40.974Z,95083.38
2019-05-25T04:18:11.047Z,95086.31
2019-05-25T04:20:40.945Z,95087.34
2019-05-25T04:23:12.138Z,95092.78
2019-05-25T04:25:42.132Z,95100.00
2019-05-25T04:28:12.206Z,95099.33
2019-05-25T04:30:42.182Z,95101.66
2019-05-25T04:33:12.193Z,95095.73
2019-05-25T04:35:42.164Z,95097.72
2019-05-25T04:38:12.173Z,95092.80
2019-05-25T04:40:42.109Z,95101.34
2019-05-25T04:43:13.083Z,95096.09
2019-05-25T04:45:43.091Z,95094.78
2019-05-25T04:48:13.067Z,95090.84
2019-05-25T04:50:43.086Z,95100.83
2019-05-25T04:53:14.031Z,95100.82
2019-05-25T04:55:44.039Z,95102.95
2019-05-25T04:58:14.078Z,95106.20
2019-05-25T05:00:44.097Z,95102.44
2019-05-25T05:03:14.069Z,95107.83
2019-05-25T05:05:44.080Z,95098.42
2019-05-25T05:08:14.053Z,95099.19
2019-05-25T05:10:44.358Z,95104.08
2019-05-25T05:13:14.371Z,95103.03
2019-05-25T05:15:44.270Z,95101.45
2019-05-25T05:18:14.315Z,95105.02
2019-05-25T05:20:44.336Z,95105.75
2019-05-25T05:23:14.249Z,95102.90
2019-05-25T05:25:44.264Z,95107.42
2019-05-25T05:28:14.240Z,95109.75
2019-05-25T05:30:44.274Z,95104.69
2019-05-25T05:33:14.274Z,95106.66
2019-05-25T05:35:46.182Z,95106.98
2019-05-25T05:38:17.261Z,95111.11
2019-05-25T05:40:48.270Z,95119.57
2019-05-25T05:43:20.617Z,95120.41
2019-05-25T05:45:54.034Z,95122.33
2019-05-25T05:48:26.298Z,95123.66
2019-05-25T05:50:59.232Z,95120.85
2019-05-25T05:53:29.210Z,95117.68
2019-05-25T05:55:59.220Z,95111.44
2019-05-25T05:58:29.237Z,95116.66
2019-05-25T06:00:59.215Z,95112.37
2019-05-25T06:03:30.193Z,95120.30
2019-05-25T06:06:00.180Z,95111.75
2019-05-25T06:08:30.198Z,95120.91
2019-05-25T06:11:01.183Z,95117.31
2019-05-25T06:13:31.208Z,95122.82
2019-05-25T06:16:01.182Z,95119.42
2019-05-25T06:18:31.204Z,95122.66
2019-05-25T06:21:01.175Z,95125.30
2019-05-25T06:23:31.114Z,95125.36
2019-05-25T06:26:01.087Z,95130.89
2019-05-25T06:28:32.176Z,95125.66
2019-05-25T06:31:02.196Z,95130.84
2019-05-25T06:33:32.243Z,95130.70
2019-05-25T06:36:02.333Z,95129.05
2019-05-25T06:38:32.320Z,95131.65
2019-05-25T06:41:02.320Z,95136.55
2019-05-25T06:43:32.221Z,95134.42
2019-05-25T06:46:02.309Z,95136.40
2019-05-25T06:48:32.296Z,95137.83
2019-05-25T06:51:02.383Z,95131.31
2019-05-25T06:53:32.367Z,95128.21
2019-05-25T06:56:02.385Z,95131.33
2019-05-25T06:58:32.434Z,95133.41
2019-05-25T07:01:03.615Z,95141.56
2019-05-25T07:03:33.706Z,95140.95
2019-05-25T07:06:03.754Z,95142.17
2019-05-25T07:08:34.817Z,95150.97
2019-05-25T07:11:04.875Z,95154.33
2019-05-25T07:13:34.812Z,95152.31
2019-05-25T07:16:04.825Z,95149.27
2019-05-25T07:18:35.712Z,95154.37
2019-05-25T07:21:06.401Z,95147.55
2019-05-25T07:23:36.381Z,95149.62
2019-05-25T07:26:06.396Z,95152.67
2019-05-25T07:28:36.364Z,95154.82
2019-05-25T07:31:06.382Z,95159.60
2019-05-25T07:33:36.374Z,95152.58
2019-05-25T07:36:07.696Z,95161.24
2019-05-25T07:38:38.049Z,95161.95
2019-05-25T07:41:08.060Z,95167.26
2019-05-25T07:43:38.034Z,95162.44
2019-05-25T07:46:08.080Z,95165.31
2019-05-25T07:48:38.119Z,95160.09
2019-05-25T07:51:08.197Z,95161.21
2019-05-25T07:53:38.189Z,95165.80
2019-05-25T07:56:08.251Z,95166.43
2019-05-25T07:58:38.225Z,95176.80
2019-05-25T08:01:08.234Z,95176.30
2019-05-25T08:03:39.859Z,95179.05
2019-05-25T08:06:10.072Z,95179.95
2019-05-25T08:08:40.048Z,95179.23
2019-05-25T08:11:11.065Z,95171.58
2019-05-25T08:13:41.034Z,95175.19
2019-05-25T08:16:11.037Z,95174.94
2019-05-25T08:18:41.035Z,95173.79
2019-05-25T08:21:11.041Z,95171.73
2019-05-25T08:23:41.094Z,95173.27
2019-05-25T08:26:11.115Z,95169.09
2019-05-25T08:28:41.098Z,95171.23
2019-05-25T08:31:11.020Z,95170.09
2019-05-25T08:33:41.012Z,95173.70
2019-05-25T08:36:11.024Z,95170.55
2019-05-25T08:38:41.090Z,95178.61
2019-05-25T08:41:11.120Z,95170.15
2019-05-25T08:43:41.015Z,95165.64
2019-05-25T08:46:11.023Z,95175.19
2019-05-25T08:48:41.032Z,95171.51
2019-05-25T08:51:11.042Z,95166.36
2019-05-25T08:53:42.386Z,95167.20
2019-05-25T08:56:13.002Z,95166.03
2019-05-25T08:58:49.027Z,95169.88
2019-05-25T09:01:16.975Z,95174.09
2019-05-25T09:03:47.007Z,95171.07
2019-05-25T09:06:17.000Z,95166.44
2019-05-25T09:08:46.986Z,95174.22
2019-05-25T09:11:16.995Z,95169.22
2019-05-25T09:13:47.039Z,95174.73
2019-05-25T09:16:17.068Z,95176.59
2019-05-25T09:18:46.968Z,95170.95
2019-05-25T09:21:17.048Z,95173.53
2019-05-25T09:23:48.846Z,95179.82
2019-05-25T09:26:18.799Z,95177.80
2019-05-25T09:29:03.580Z,95182.59
2019-05-25T09:31:20.624Z,95182.22
2019-05-25T09:33:51.669Z,95181.56
2019-05-25T09:36:21.681Z,95179.20
2019-05-25T09:38:51.704Z,95167.74
2019-05-25T09:41:21.646Z,95170.95
2019-05-25T09:43:51.642Z,95168.94
2019-05-25T09:46:21.707Z,95173.41
2019-05-25T09:48:51.763Z,95171.91
2019-05-25T09:51:21.826Z,95179.27
2019-05-25T09:53:51.812Z,95173.84
2019-05-25T09:56:21.846Z,95169.53
2019-05-25T09:58:51.824Z,95172.20
2019-05-25T10:01:21.923Z,95169.70
2019-05-25T10:03:51.822Z,95167.16
2019-05-25T10:06:21.937Z,95172.88
2019-05-25T10:08:51.948Z,95169.09
2019-05-25T10:11:21.931Z,95174.05
2019-05-25T10:13:51.961Z,95175.52
2019-05-25T10:16:21.921Z,95172.85
2019-05-25T10:18:51.899Z,95169.33
2019-05-25T10:21:21.911Z,95175.63
2019-05-25T10:23:51.889Z,95169.41
2019-05-25T10:26:23.106Z,95175.14
2019-05-25T10:28:53.570Z,95170.67
2019-05-25T10:31:23.582Z,95166.95
2019-05-25T10:33:53.572Z,95168.50
2019-05-25T10:36:23.581Z,95163.03
2019-05-25T10:38:53.554Z,95166.42
2019-05-25T10:41:23.558Z,95163.69
2019-05-25T10:43:53.574Z,95164.20
2019-05-25T10:46:23.482Z,95162.94
2019-05-25T10:48:53.562Z,95161.02
2019-05-25T10:51:23.537Z,95153.19
2019-05-25T10:53:54.617Z,95153.63
2019-05-25T10:56:24.593Z,95151.41
2019-05-25T10:58:54.673Z,95148.88
2019-05-25T11:01:24.587Z,95141.77
2019-05-25T11:03:54.605Z,95141.77
2019-05-25T11:06:24.583Z,95142.69
2019-05-25T11:08:54.591Z,95135.34
2019-05-25T11:11:24.565Z,95131.18
2019-05-25T11:13:54.511Z,95127.59
2019-05-25T11:16:24.485Z,95126.51
2019-05-25T11:18:54.501Z,95126.45
2019-05-25T11:21:24.469Z,95126.92
2019-05-25T11:23:54.483Z,95127.05
2019-05-25T11:26:24.474Z,95121.78
2019-05-25T11:28:54.506Z,95117.45
2019-05-25T11:31:24.489Z,95119.53
2019-05-25T11:33:54.595Z,95112.86
2019-05-25T11:36:24.639Z,95116.35
2019-05-25T11:38:54.650Z,95118.20
2019-05-25T11:41:24.637Z,95116.89
2019-05-25T11:43:54.648Z,95112.03
2019-05-25T11:46:24.625Z,95116.03
2019-05-25T11:48:54.675Z,95110.92
2019-05-25T11:51:24.544Z,95112.39
2019-05-25T11:53:54.563Z,95109.13
2019-05-25T11:56:24.539Z,95096.67
2019-05-25T11:58:54.548Z,95099.55
2019-05-25T12:01:24.540Z,95094.13
2019-05-25T12:03:54.483Z,95107.28
2019-05-25T12:06:24.529Z,95105.16
2019-05-25T12:08:54.611Z,95102.50
2019-05-25T12:11:24.588Z,95102.04
2019-05-25T12:13:54.598Z,95103.09
2019-05-25T12:16:25.024Z,95102.67
2019-05-25T12:18:55.130Z,95107.48
2019-05-25T12:21:25.103Z,95100.18
2019-05-25T12:23:55.184Z,95101.36
2019-05-25T12:26:25.160Z,95096.41
2019-05-25T12:28:55.172Z,95088.41
2019-05-25T12:31:25.166Z,95090.83
2019-05-25T12:33:55.181Z,95095.13
2019-05-25T12:36:25.221Z,95094.83
2019-05-25T12:38:55.268Z,95092.09
2019-05-25T12:41:25.355Z,95085.85
2019-05-25T12:43:55.629Z,95087.75
2019-05-25T12:46:25.618Z,95086.48
2019-05-25T12:48:55.663Z,95085.94
2019-05-25T12:51:25.673Z,95085.55
2019-05-25T12:53:55.570Z,95090.30
2019-05-25T12:56:25.582Z,95088.17
2019-05-25T12:58:55.553Z,95088.72
2019-05-25T13:01:25.571Z,95087.66
2019-05-25T13:03:55.552Z,95086.58
2019-05-25T13:06:25.565Z,95084.84
2019-05-25T13:08:56.114Z,95086.75
2019-05-25T13:11:26.330Z,95086.17
2019-05-25T13:13:56.240Z,95087.06
2019-05-25T13:16:26.793Z,95085.91
2019-05-25T13:18:57.580Z,95091.91
2019-05-25T13:21:28.104Z,95088.33
2019-05-25T13:23:58.093Z,95092.53
2019-05-25T13:26:28.445Z,95093.66
2019-05-25T13:28:58.729Z,95093.66
2019-05-25T13:31:31.433Z,95090.17
2019-05-25T13:34:01.575Z,95089.89
2019-05-25T13:36:31.661Z,95084.43
2019-05-25T13:39:01.710Z,95088.12
2019-05-25T13:41:31.989Z,95083.74
2019-05-25T13:44:01.980Z,95091.83
2019-05-25T13:46:31.995Z,95088.80
2019-05-25T13:49:02.001Z,95092.25
2019-05-25T13:51:32.040Z,95087.47
2019-05-25T13:54:02.049Z,95087.33
2019-05-25T13:56:32.041Z,95089.23
2019-05-25T13:59:03.222Z,95093.67
2019-05-25T14:01:33.312Z,95093.22
2019-05-25T14:04:03.344Z,95093.80
2019-05-25T14:06:33.394Z,95087.47
2019-05-25T14:09:04.684Z,95090.33
2019-05-25T14:11:34.724Z,95092.61
2019-05-25T14:14:05.086Z,95090.69
2019-05-25T14:16:35.065Z,95085.59
2019-05-25T14:19:05.347Z,95088.19
2019-05-25T14:21:35.349Z,95085.34
2019-05-25T14:24:05.333Z,95086.47
2019-05-25T14:26:35.343Z,95081.98
2019-05-25T14:29:05.389Z,95083.39
2019-05-25T14:31:44.894Z,95082.73
2019-05-25T14:34:07.070Z,95078.30
2019-05-25T14:36:38.248Z,95082.95
2019-05-25T14:39:09.224Z,95077.71
2019-05-25T14:41:39.160Z,95085.19
2019-05-25T14:44:09.131Z,95075.64
2019-05-25T14:46:39.073Z,95081.98
2019-05-25T14:49:09.111Z,95083.31
2019-05-25T14:51:39.040Z,95082.73
2019-05-25T14:54:09.102Z,95082.06
2019-05-25T14:56:39.081Z,95085.14
2019-05-25T14:59:09.435Z,95078.73
2019-05-25T15:01:39.641Z,95087.46
2019-05-25T15:04:09.652Z,95087.81
2019-05-25T15:06:39.672Z,95090.70
2019-05-25T15:09:09.678Z,95085.58
2019-05-25T15:11:39.569Z,95089.31
2019-05-25T15:14:09.544Z,95095.29
2019-05-25T15:16:39.708Z,95092.01
2019-05-25T15:19:09.759Z,95088.10
2019-05-25T15:21:39.920Z,95091.23
2019-05-25T15:24:10.069Z,95096.44
2019-05-25T15:26:40.061Z,95093.55
2019-05-25T15:29:11.533Z,95094.14
2019-05-25T15:31:42.065Z,95094.88
2019-05-25T15:34:12.039Z,95098.79
2019-05-25T15:36:42.153Z,95098.39
2019-05-25T15:39:12.140Z,95101.20
2019-05-25T15:41:42.221Z,95098.38
2019-05-25T15:44:12.275Z,95099.00
2019-05-25T15:46:42.360Z,95099.53
2019-05-25T15:49:12.412Z,95105.10
2019-05-25T15:51:42.493Z,95109.91
2019-05-25T15:54:12.498Z,95107.28
2019-05-25T15:56:42.593Z,95099.22
2019-05-25T15:59:12.571Z,95102.84
2019-05-25T16:01:42.503Z,95106.25
2019-05-25T16:04:12.477Z,95117.21
2019-05-25T16:06:42.515Z,95110.17
2019-05-25T16:09:12.557Z,95121.66
2019-05-25T16:11:42.633Z,95121.80
2019-05-25T16:14:12.646Z,95123.23
2019-05-25T16:16:42.694Z,95120.34
2019-05-25T16:19:12.810Z,95122.81
2019-05-25T16:21:42.789Z,95124.30
2019-05-25T16:24:12.904Z,95131.26
2019-05-25T16:26:46.313Z,95133.72
2019-05-25T16:29:14.581Z,95138.02
2019-05-25T16:31:44.550Z,95141.94
2019-05-25T16:34:14.563Z,95149.30
2019-05-25T16:36:44.461Z,95150.39
2019-05-25T16:39:14.484Z,95152.16
2019-05-25T16:41:44.606Z,95161.75
2019-05-25T16:44:14.629Z,95176.53
2019-05-25T16:46:44.606Z,95188.49
2019-05-25T16:49:14.625Z,95182.69
2019-05-25T16:51:44.590Z,95181.12
2019-05-25T16:54:14.593Z,95173.16
2019-05-25T16:56:44.675Z,95176.25
2019-05-25T16:59:14.682Z,95176.25
2019-05-25T17:01:48.449Z,95170.42
2019-05-25T17:04:16.384Z,95177.14
2019-05-25T17:06:46.381Z,95179.00
2019-05-25T17:09:16.406Z,95183.84
2019-05-25T17:11:46.403Z,95180.17
2019-05-25T17:14:16.312Z,95182.92
2019-05-25T17:16:46.317Z,95186.69
2019-05-25T17:19:16.302Z,95182.50
2019-05-25T17:21:46.324Z,95184.05
2019-05-25T17:24:16.318Z,95183.62
2019-05-25T17:26:46.841Z,95181.66
2019-05-25T17:29:16.815Z,95181.77
2019-05-25T17:31:46.871Z,95182.63
2019-05-25T17:34:16.811Z,95182.59
2019-05-25T17:36:47.044Z,95184.69
2019-05-25T17:39:17.337Z,95184.86
2019-05-25T17:41:47.338Z,95188.55
2019-05-25T17:44:17.416Z,95186.29
2019-05-25T17:46:47.391Z,95194.95
2019-05-25T17:49:18.594Z,95186.21
2019-05-25T17:51:48.626Z,95194.43
2019-05-25T17:54:18.870Z,95196.35
2019-05-25T17:56:48.802Z,95200.98
2019-05-25T17:59:18.814Z,95197.77
2019-05-25T18:01:49.190Z,95200.50
2019-05-25T18:04:19.327Z,95204.73
2019-05-25T18:06:49.297Z,95209.53
2019-05-25T18:09:19.332Z,95210.17
2019-05-25T18:11:50.578Z,95216.44
2019-05-25T18:14:21.267Z,95214.43
2019-05-25T18:16:51.917Z,95207.50
2019-05-25T18:19:22.120Z,95208.94
2019-05-25T18:21:52.168Z,95213.44
2019-05-25T18:24:22.270Z,95220.19
2019-05-25T18:26:52.247Z,95219.30
2019-05-25T18:29:23.917Z,95224.72
2019-05-25T18:31:53.979Z,95229.44
2019-05-25T18:34:23.982Z,95225.27
2019-05-25T18:36:54.042Z,95236.80
2019-05-25T18:39:24.259Z,95236.55
2019-05-25T18:41:54.698Z,95239.88
2019-05-25T18:44:26.111Z,95241.88
2019-05-25T18:46:56.158Z,95252.02
2019-05-25T18:49:26.238Z,95257.60
2019-05-25T18:51:56.226Z,95261.07
2019-05-25T18:54:26.650Z,95259.87
2019-05-25T18:56:56.628Z,95265.48
2019-05-25T18:59:26.633Z,95261.89
2019-05-25T19:01:56.572Z,95257.80
2019-05-25T19:04:43.606Z,95263.42
2019-05-25T19:06:58.229Z,95264.16
2019-05-25T19:09:28.198Z,95262.08
2019-05-25T19:11:58.176Z,95258.23
2019-05-25T19:14:28.944Z,95258.49
2019-05-25T19:16:58.868Z,95261.83
2019-05-25T19:19:28.892Z,95263.31
2019-05-25T19:21:58.963Z,95269.92
2019-05-25T19:24:28.989Z,95270.28
2019-05-25T19:26:59.495Z,95280.80
2019-05-25T19:29:30.398Z,95280.83
2019-05-25T19:32:00.590Z,95273.70
2019-05-25T19:34:30.573Z,95282.88
2019-05-25T19:37:03.414Z,95279.28
2019-05-25T19:39:32.852Z,95283.67
2019-05-25T19:42:02.993Z,95282.69
2019-05-25T19:44:32.972Z,95289.88
2019-05-25T19:47:03.124Z,95293.67
2019-05-25T19:49:33.601Z,95293.41
2019-05-25T19:52:03.626Z,95293.02
2019-05-25T19:54:33.719Z,95290.20
2019-05-25T19:57:03.708Z,95289.39
2019-05-25T19:59:33.741Z,95299.78
2019-05-25T20:02:04.200Z,95295.16
2019-05-25T20:04:34.819Z,95298.69
2019-05-25T20:07:05.623Z,95300.77
2019-05-25T20:09:35.635Z,95304.13
2019-05-25T20:12:05.615Z,95308.92
2019-05-25T20:14:35.639Z,95312.32
2019-05-25T20:17:06.583Z,95311.20
2019-05-25T20:19:36.664Z,95314.00
2019-05-25T20:22:09.141Z,95314.89
2019-05-25T20:24:38.435Z,95322.53
2019-05-25T20:27:08.357Z,95322.40
2019-05-25T20:29:38.368Z,95323.72
2019-05-25T20:32:08.345Z,95322.89
2019-05-25T20:34:38.924Z,95325.59
2019-05-25T20:37:09.075Z,95336.02
2019-05-25T20:39:39.144Z,95332.88
2019-05-25T20:42:09.050Z,95334.36
2019-05-25T20:44:39.516Z,95332.77
2019-05-25T20:47:09.547Z,95340.38
2019-05-25T20:49:39.557Z,95340.55
2019-05-25T20:52:09.567Z,95338.12
2019-05-25T20:54:39.557Z,95347.08
2019-05-25T20:57:09.650Z,95350.27
2019-05-25T20:59:39.682Z,95348.16
2019-05-25T21:02:09.717Z,95345.39
2019-05-25T21:04:39.754Z,95346.38
2019-05-25T21:07:09.848Z,95350.52
2019-05-25T21:09:39.835Z,95345.27
2019-05-25T21:12:09.859Z,95344.65
2019-05-25T21:14:39.790Z,95347.05
2019-05-25T21:17:09.807Z,95348.67
2019-05-25T21:19:39.862Z,95342.95
2019-05-25T21:22:09.951Z,95349.22
2019-05-25T21:24:40.008Z,95347.26
2019-05-25T21:27:09.997Z,95346.63
2019-05-25T21:29:40.049Z,95347.80
2019-05-25T21:32:10.046Z,95350.14
2019-05-25T21:34:40.520Z,95353.63
2019-05-25T21:37:10.537Z,95353.97
2019-05-25T21:39:41.234Z,95351.04
2019-05-25T21:42:11.148Z,95349.87
2019-05-25T21:44:41.392Z,95350.36
2019-05-25T21:47:11.376Z,95354.65
2019-05-25T21:49:41.796Z,95356.80
2019-05-25T21:52:12.390Z,95360.08
2019-05-25T21:54:42.372Z,95353.84
2019-05-25T21:57:12.365Z,95348.75
2019-05-25T21:59:42.443Z,95347.59
2019-05-25T22:02:12.462Z,95347.94
2019-05-25T22:04:42.557Z,95339.39
2019-05-25T22:07:12.543Z,95343.84
2019-05-25T22:09:42.587Z,95341.20
2019-05-25T22:12:12.578Z,95342.38
2019-05-25T22:14:43.106Z,95339.75
2019-05-25T22:17:13.059Z,95338.28
2019-05-25T22:19:43.001Z,95333.31
2019-05-25T22:22:12.986Z,95340.19
2019-05-25T22:24:43.007Z,95340.33
2019-05-25T22:27:12.959Z,95342.97
2019-05-25T22:29:42.946Z,95344.44
2019-05-25T22:32:13.950Z,95347.94
2019-05-25T22:34:43.933Z,95348.75
2019-05-25T22:37:13.896Z,95351.72
2019-05-25T22:39:43.881Z,95348.56
2019-05-25T22:42:13.899Z,95351.02
2019-05-25T22:44:44.503Z,95354.03
2019-05-25T22:47:14.937Z,95353.34
2019-05-25T22:49:45.280Z,95355.84
2019-05-25T22:52:15.797Z,95357.16
2019-05-25T22:54:45.818Z,95358.64
2019-05-25T22:57:15.770Z,95354.05
2019-05-25T22:59:45.757Z,95350.29
2019-05-25T23:02:15.779Z,95345.66
2019-05-25T23:04:45.715Z,95346.23
2019-05-25T23:07:15.878Z,95344.77
2019-05-25T23:09:45.939Z,95341.80
2019-05-25T23:12:15.958Z,95340.19
2019-05-25T23:14:45.938Z,95341.01
2019-05-25T23:17:15.962Z,95338.19
2019-05-25T23:19:45.950Z,95336.87
2019-05-25T23:22:16.042Z,95344.96
2019-05-25T23:24:45.995Z,95343.98
2019-05-25T23:27:16.344Z,95348.36
2019-05-25T23:29:46.678Z,95347.64
2019-05-25T23:32:16.757Z,95349.94
2019-05-25T23:34:46.745Z,95351.25
2019-05-25T23:37:16.836Z,95349.52
2019-05-25T23:39:46.843Z,95348.55
2019-05-25T23:42:16.858Z,95351.86
2019-05-25T23:44:46.865Z,95348.39
2019-05-25T23:47:16.888Z,95344.63
2019-05-25T23:49:46.887Z,95343.99
2019-05-25T23:52:16.874Z,95345.61
2019-05-25T23:54:46.964Z,95346.30
2019-05-25T23:57:16.950Z,95344.82
2019-05-25T23:59:48.135Z,95346.47
